sensor_id;sensor_type;location;lat;lon;timestamp;temperature;humidity
43991;DHT22;29654;50.784;20.604;2023-02-15T00:03:11;10.40;56.00
43991;DHT22;29654;50.784;20.604;2023-02-15T00:08:15;10.40;56.10
43991;DHT22;29654;50.784;20.604;2023-02-15T00:13:18;10.40;56.10
43991;DHT22;29654;50.784;20.604;2023-02-15T00:18:21;10.40;56.10
43991;DHT22;29654;50.784;20.604;2023-02-15T00:23:26;10.30;56.10
43991;DHT22;29654;50.784;20.604;2023-02-15T00:28:29;10.30;56.10
43991;DHT22;29654;50.784;20.604;2023-02-15T00:33:34;10.30;56.20
43991;DHT22;29654;50.784;20.604;2023-02-15T00:38:38;10.30;56.20
43991;DHT22;29654;50.784;20.604;2023-02-15T00:43:41;10.30;56.20
43991;DHT22;29654;50.784;20.604;2023-02-15T00:48:44;10.30;56.20
43991;DHT22;29654;50.784;20.604;2023-02-15T00:53:48;10.30;56.00
43991;DHT22;29654;50.784;20.604;2023-02-15T00:58:51;10.30;56.00
43991;DHT22;29654;50.784;20.604;2023-02-15T01:03:53;10.30;56.20
43991;DHT22;29654;50.784;20.604;2023-02-15T01:08:57;10.20;56.20
43991;DHT22;29654;50.784;20.604;2023-02-15T01:14:00;10.30;56.40
43991;DHT22;29654;50.784;20.604;2023-02-15T01:19:04;10.30;56.30
43991;DHT22;29654;50.784;20.604;2023-02-15T01:24:12;10.30;56.30
43991;DHT22;29654;50.784;20.604;2023-02-15T01:29:15;10.30;57.00
43991;DHT22;29654;50.784;20.604;2023-02-15T01:34:17;10.30;56.40
43991;DHT22;29654;50.784;20.604;2023-02-15T01:39:22;10.30;56.40
43991;DHT22;29654;50.784;20.604;2023-02-15T01:44:48;10.30;56.30
43991;DHT22;29654;50.784;20.604;2023-02-15T01:50:00;10.30;56.30
43991;DHT22;29654;50.784;20.604;2023-02-15T01:55:08;10.30;56.30
43991;DHT22;29654;50.784;20.604;2023-02-15T02:00:12;10.30;56.20
43991;DHT22;29654;50.784;20.604;2023-02-15T02:05:17;10.30;56.30
43991;DHT22;29654;50.784;20.604;2023-02-15T02:10:23;10.30;56.30
43991;DHT22;29654;50.784;20.604;2023-02-15T02:15:33;10.30;56.20
43991;DHT22;29654;50.784;20.604;2023-02-15T02:32:45;10.30;56.30
43991;DHT22;29654;50.784;20.604;2023-02-15T02:38:10;10.30;56.10
43991;DHT22;29654;50.784;20.604;2023-02-15T02:43:21;10.30;56.00
43991;DHT22;29654;50.784;20.604;2023-02-15T02:48:29;10.20;56.00
43991;DHT22;29654;50.784;20.604;2023-02-15T02:53:34;10.20;56.20
43991;DHT22;29654;50.784;20.604;2023-02-15T02:58:39;10.20;56.30
43991;DHT22;29654;50.784;20.604;2023-02-15T03:03:49;10.20;56.30
43991;DHT22;29654;50.784;20.604;2023-02-15T03:08:56;10.20;56.30
43991;DHT22;29654;50.784;20.604;2023-02-15T03:14:03;10.20;56.30
43991;DHT22;29654;50.784;20.604;2023-02-15T03:19:10;10.20;56.30
43991;DHT22;29654;50.784;20.604;2023-02-15T03:24:23;10.20;56.40
43991;DHT22;29654;50.784;20.604;2023-02-15T03:29:30;10.20;56.40
43991;DHT22;29654;50.784;20.604;2023-02-15T03:34:35;10.20;56.40
43991;DHT22;29654;50.784;20.604;2023-02-15T03:39:42;10.20;56.30
43991;DHT22;29654;50.784;20.604;2023-02-15T03:44:52;10.20;56.40
43991;DHT22;29654;50.784;20.604;2023-02-15T03:50:01;10.30;56.40
43991;DHT22;29654;50.784;20.604;2023-02-15T03:55:27;10.30;56.40
43991;DHT22;29654;50.784;20.604;2023-02-15T04:00:31;10.20;56.30
43991;DHT22;29654;50.784;20.604;2023-02-15T04:05:54;10.30;56.30
43991;DHT22;29654;50.784;20.604;2023-02-15T04:10:56;10.20;56.90
43991;DHT22;29654;50.784;20.604;2023-02-15T04:16:01;10.20;56.10
43991;DHT22;29654;50.784;20.604;2023-02-15T04:21:08;10.10;56.10
43991;DHT22;29654;50.784;20.604;2023-02-15T04:26:28;10.10;56.30
43991;DHT22;29654;50.784;20.604;2023-02-15T04:31:30;10.00;56.30
43991;DHT22;29654;50.784;20.604;2023-02-15T04:36:34;10.00;56.30
43991;DHT22;29654;50.784;20.604;2023-02-15T04:41:37;9.90;56.20
43991;DHT22;29654;50.784;20.604;2023-02-15T04:46:39;9.80;56.30
43991;DHT22;29654;50.784;20.604;2023-02-15T04:51:43;9.80;56.40
43991;DHT22;29654;50.784;20.604;2023-02-15T04:56:47;9.70;56.50
43991;DHT22;29654;50.784;20.604;2023-02-15T05:01:49;9.60;56.50
43991;DHT22;29654;50.784;20.604;2023-02-15T05:06:53;9.60;56.50
43991;DHT22;29654;50.784;20.604;2023-02-15T05:11:56;9.50;56.70
43991;DHT22;29654;50.784;20.604;2023-02-15T05:16:58;9.50;56.70
43991;DHT22;29654;50.784;20.604;2023-02-15T05:22:05;9.50;56.80
43991;DHT22;29654;50.784;20.604;2023-02-15T05:27:09;9.60;56.90
43991;DHT22;29654;50.784;20.604;2023-02-15T05:32:30;9.50;56.60
43991;DHT22;29654;50.784;20.604;2023-02-15T05:37:34;9.40;56.70
43991;DHT22;29654;50.784;20.604;2023-02-15T05:42:37;9.40;56.80
43991;DHT22;29654;50.784;20.604;2023-02-15T05:47:39;9.40;57.00
43991;DHT22;29654;50.784;20.604;2023-02-15T05:52:43;9.40;56.90
43991;DHT22;29654;50.784;20.604;2023-02-15T05:57:46;9.40;57.00
43991;DHT22;29654;50.784;20.604;2023-02-15T06:02:48;9.40;57.00
43991;DHT22;29654;50.784;20.604;2023-02-15T06:07:52;9.40;57.00
43991;DHT22;29654;50.784;20.604;2023-02-15T06:12:55;9.40;57.80
43991;DHT22;29654;50.784;20.604;2023-02-15T06:17:57;9.40;57.00
43991;DHT22;29654;50.784;20.604;2023-02-15T06:23:01;9.40;57.00
43991;DHT22;29654;50.784;20.604;2023-02-15T06:28:04;9.40;57.10
43991;DHT22;29654;50.784;20.604;2023-02-15T06:33:07;9.50;57.10
43991;DHT22;29654;50.784;20.604;2023-02-15T06:38:11;9.50;57.10
43991;DHT22;29654;50.784;20.604;2023-02-15T06:43:13;9.50;57.10
43991;DHT22;29654;50.784;20.604;2023-02-15T06:48:16;9.60;57.10
43991;DHT22;29654;50.784;20.604;2023-02-15T06:53:20;9.60;57.00
43991;DHT22;29654;50.784;20.604;2023-02-15T06:58:22;9.60;56.90
43991;DHT22;29654;50.784;20.604;2023-02-15T07:03:25;9.60;56.80
43991;DHT22;29654;50.784;20.604;2023-02-15T07:08:29;9.60;57.00
43991;DHT22;29654;50.784;20.604;2023-02-15T07:13:32;9.60;57.10
43991;DHT22;29654;50.784;20.604;2023-02-15T07:18:34;9.60;57.10
43991;DHT22;29654;50.784;20.604;2023-02-15T07:23:39;9.70;57.10
43991;DHT22;29654;50.784;20.604;2023-02-15T07:28:42;9.70;57.10
43991;DHT22;29654;50.784;20.604;2023-02-15T07:33:45;9.80;57.00
43991;DHT22;29654;50.784;20.604;2023-02-15T07:38:49;9.80;56.80
43991;DHT22;29654;50.784;20.604;2023-02-15T07:43:51;9.80;56.80
43991;DHT22;29654;50.784;20.604;2023-02-15T07:48:54;9.80;56.70
43991;DHT22;29654;50.784;20.604;2023-02-15T07:53:58;9.80;56.80
43991;DHT22;29654;50.784;20.604;2023-02-15T07:59:01;9.80;56.90
43991;DHT22;29654;50.784;20.604;2023-02-15T08:04:07;9.80;56.90
43991;DHT22;29654;50.784;20.604;2023-02-15T08:09:14;9.80;57.00
43991;DHT22;29654;50.784;20.604;2023-02-15T08:14:18;9.80;56.80
43991;DHT22;29654;50.784;20.604;2023-02-15T08:19:23;9.80;56.80
43991;DHT22;29654;50.784;20.604;2023-02-15T08:24:29;9.70;56.80
43991;DHT22;29654;50.784;20.604;2023-02-15T08:29:34;9.70;57.10
43991;DHT22;29654;50.784;20.604;2023-02-15T08:34:40;9.70;57.10
43991;DHT22;29654;50.784;20.604;2023-02-15T08:39:45;9.80;57.00
43991;DHT22;29654;50.784;20.604;2023-02-15T08:44:47;9.80;56.80
43991;DHT22;29654;50.784;20.604;2023-02-15T08:49:52;9.80;56.90
43991;DHT22;29654;50.784;20.604;2023-02-15T08:54:56;9.80;57.00
43991;DHT22;29654;50.784;20.604;2023-02-15T08:59:59;9.90;57.10
43991;DHT22;29654;50.784;20.604;2023-02-15T09:05:03;9.90;56.80
43991;DHT22;29654;50.784;20.604;2023-02-15T09:10:08;9.90;56.70
43991;DHT22;29654;50.784;20.604;2023-02-15T09:15:11;9.90;56.90
43991;DHT22;29654;50.784;20.604;2023-02-15T09:20:13;9.80;56.90
43991;DHT22;29654;50.784;20.604;2023-02-15T09:25:17;9.90;57.00
43991;DHT22;29654;50.784;20.604;2023-02-15T09:30:20;10.00;56.90
43991;DHT22;29654;50.784;20.604;2023-02-15T09:35:23;10.00;57.00
43991;DHT22;29654;50.784;20.604;2023-02-15T09:40:32;10.00;57.10
43991;DHT22;29654;50.784;20.604;2023-02-15T09:45:56;10.20;57.10
43991;DHT22;29654;50.784;20.604;2023-02-15T09:51:24;10.20;57.00
43991;DHT22;29654;50.784;20.604;2023-02-15T09:56:39;10.30;56.80
43991;DHT22;29654;50.784;20.604;2023-02-15T10:01:50;10.40;56.80
43991;DHT22;29654;50.784;20.604;2023-02-15T10:07:07;10.50;56.80
43991;DHT22;29654;50.784;20.604;2023-02-15T10:12:36;10.60;56.50
43991;DHT22;29654;50.784;20.604;2023-02-15T10:17:58;10.60;56.50
43991;DHT22;29654;50.784;20.604;2023-02-15T10:23:20;10.60;56.50
43991;DHT22;29654;50.784;20.604;2023-02-15T10:28:36;10.60;56.50
43991;DHT22;29654;50.784;20.604;2023-02-15T10:33:44;10.60;56.60
43991;DHT22;29654;50.784;20.604;2023-02-15T10:38:54;10.70;56.40
43991;DHT22;29654;50.784;20.604;2023-02-15T10:44:19;10.60;56.20
43991;DHT22;29654;50.784;20.604;2023-02-15T10:49:57;10.40;56.50
43991;DHT22;29654;50.784;20.604;2023-02-15T10:55:29;10.40;56.70
43991;DHT22;29654;50.784;20.604;2023-02-15T11:00:44;10.50;56.70
43991;DHT22;29654;50.784;20.604;2023-02-15T11:05:57;10.50;56.50
43991;DHT22;29654;50.784;20.604;2023-02-15T11:11:06;10.50;56.80
43991;DHT22;29654;50.784;20.604;2023-02-15T11:16:15;10.50;56.80
43991;DHT22;29654;50.784;20.604;2023-02-15T11:21:22;10.50;56.50
43991;DHT22;29654;50.784;20.604;2023-02-15T11:26:31;10.40;56.60
43991;DHT22;29654;50.784;20.604;2023-02-15T11:31:42;10.40;56.70
43991;DHT22;29654;50.784;20.604;2023-02-15T11:36:47;10.40;56.70
43991;DHT22;29654;50.784;20.604;2023-02-15T11:41:55;10.40;56.80
43991;DHT22;29654;50.784;20.604;2023-02-15T11:47:00;10.40;56.90
43991;DHT22;29654;50.784;20.604;2023-02-15T11:52:07;10.40;56.90
43991;DHT22;29654;50.784;20.604;2023-02-15T11:57:17;10.50;56.90
43991;DHT22;29654;50.784;20.604;2023-02-15T12:02:23;10.60;57.10
43991;DHT22;29654;50.784;20.604;2023-02-15T12:07:30;10.80;57.10
43991;DHT22;29654;50.784;20.604;2023-02-15T12:12:36;11.00;57.00
43991;DHT22;29654;50.784;20.604;2023-02-15T12:17:49;11.20;56.80
43991;DHT22;29654;50.784;20.604;2023-02-15T12:22:55;11.40;56.40
43991;DHT22;29654;50.784;20.604;2023-02-15T12:28:03;11.50;56.30
43991;DHT22;29654;50.784;20.604;2023-02-15T12:33:15;11.60;56.20
43991;DHT22;29654;50.784;20.604;2023-02-15T12:38:28;11.70;55.90
43991;DHT22;29654;50.784;20.604;2023-02-15T12:43:33;11.70;56.10
43991;DHT22;29654;50.784;20.604;2023-02-15T12:48:38;11.90;56.10
43991;DHT22;29654;50.784;20.604;2023-02-15T12:53:41;12.00;55.70
43991;DHT22;29654;50.784;20.604;2023-02-15T12:58:43;12.00;55.60
43991;DHT22;29654;50.784;20.604;2023-02-15T13:03:59;12.10;55.70
43991;DHT22;29654;50.784;20.604;2023-02-15T13:09:07;12.30;55.00
43991;DHT22;29654;50.784;20.604;2023-02-15T13:14:18;12.30;55.20
43991;DHT22;29654;50.784;20.604;2023-02-15T13:19:31;12.30;55.20
43991;DHT22;29654;50.784;20.604;2023-02-15T13:24:40;12.30;55.00
43991;DHT22;29654;50.784;20.604;2023-02-15T13:29:48;12.30;55.00
43991;DHT22;29654;50.784;20.604;2023-02-15T13:34:56;12.10;54.90
43991;DHT22;29654;50.784;20.604;2023-02-15T13:40:02;12.10;54.90
43991;DHT22;29654;50.784;20.604;2023-02-15T13:45:20;11.90;55.00
43991;DHT22;29654;50.784;20.604;2023-02-15T13:50:43;11.90;55.10
43991;DHT22;29654;50.784;20.604;2023-02-15T13:55:56;11.90;55.10
43991;DHT22;29654;50.784;20.604;2023-02-15T14:01:08;11.90;55.30
43991;DHT22;29654;50.784;20.604;2023-02-15T14:06:28;12.00;55.30
43991;DHT22;29654;50.784;20.604;2023-02-15T14:11:50;12.10;55.20
43991;DHT22;29654;50.784;20.604;2023-02-15T14:17:03;12.20;55.10
43991;DHT22;29654;50.784;20.604;2023-02-15T14:22:18;12.30;54.90
43991;DHT22;29654;50.784;20.604;2023-02-15T14:27:32;12.40;54.90
43991;DHT22;29654;50.784;20.604;2023-02-15T14:32:47;12.40;54.60
43991;DHT22;29654;50.784;20.604;2023-02-15T14:38:00;12.40;54.50
43991;DHT22;29654;50.784;20.604;2023-02-15T14:43:09;12.50;54.30
43991;DHT22;29654;50.784;20.604;2023-02-15T14:48:22;12.50;54.30
43991;DHT22;29654;50.784;20.604;2023-02-15T14:53:38;12.50;54.90
43991;DHT22;29654;50.784;20.604;2023-02-15T14:58:56;12.50;54.10
43991;DHT22;29654;50.784;20.604;2023-02-15T15:04:21;12.50;54.10
43991;DHT22;29654;50.784;20.604;2023-02-15T15:09:29;12.40;54.30
43991;DHT22;29654;50.784;20.604;2023-02-15T15:14:40;12.40;54.10
43991;DHT22;29654;50.784;20.604;2023-02-15T15:20:06;12.40;53.90
43991;DHT22;29654;50.784;20.604;2023-02-15T15:25:43;12.40;53.50
43991;DHT22;29654;50.784;20.604;2023-02-15T15:30:50;12.30;53.40
43991;DHT22;29654;50.784;20.604;2023-02-15T15:36:06;12.10;53.60
43991;DHT22;29654;50.784;20.604;2023-02-15T15:41:39;12.00;53.40
43991;DHT22;29654;50.784;20.604;2023-02-15T15:47:08;11.90;53.30
43991;DHT22;29654;50.784;20.604;2023-02-15T15:52:17;11.70;53.00
43991;DHT22;29654;50.784;20.604;2023-02-15T15:57:26;11.40;53.20
43991;DHT22;29654;50.784;20.604;2023-02-15T16:02:30;11.30;53.20
43991;DHT22;29654;50.784;20.604;2023-02-15T16:07:32;11.00;53.20
43991;DHT22;29654;50.784;20.604;2023-02-15T16:12:38;10.80;53.20
43991;DHT22;29654;50.784;20.604;2023-02-15T16:17:43;10.60;53.10
43991;DHT22;29654;50.784;20.604;2023-02-15T16:22:52;10.30;53.20
43991;DHT22;29654;50.784;20.604;2023-02-15T16:28:06;10.10;53.30
43991;DHT22;29654;50.784;20.604;2023-02-15T16:33:10;9.90;53.30
43991;DHT22;29654;50.784;20.604;2023-02-15T16:38:14;9.70;53.50
43991;DHT22;29654;50.784;20.604;2023-02-15T16:43:23;9.50;53.60
43991;DHT22;29654;50.784;20.604;2023-02-15T16:48:27;9.30;53.60
43991;DHT22;29654;50.784;20.604;2023-02-15T16:53:29;9.10;53.70
43991;DHT22;29654;50.784;20.604;2023-02-15T16:58:40;8.90;54.00
43991;DHT22;29654;50.784;20.604;2023-02-15T17:03:48;8.70;53.70
43991;DHT22;29654;50.784;20.604;2023-02-15T17:09:03;8.50;53.80
43991;DHT22;29654;50.784;20.604;2023-02-15T17:14:21;8.40;53.90
43991;DHT22;29654;50.784;20.604;2023-02-15T17:19:31;8.20;53.90
43991;DHT22;29654;50.784;20.604;2023-02-15T17:24:37;8.10;54.20
43991;DHT22;29654;50.784;20.604;2023-02-15T17:29:45;7.90;54.30
43991;DHT22;29654;50.784;20.604;2023-02-15T17:35:05;7.80;54.30
43991;DHT22;29654;50.784;20.604;2023-02-15T17:40:21;7.70;54.40
43991;DHT22;29654;50.784;20.604;2023-02-15T17:45:31;7.60;54.60
43991;DHT22;29654;50.784;20.604;2023-02-15T17:50:35;7.50;54.70
43991;DHT22;29654;50.784;20.604;2023-02-15T17:55:38;7.50;54.70
43991;DHT22;29654;50.784;20.604;2023-02-15T18:00:45;7.40;54.90
43991;DHT22;29654;50.784;20.604;2023-02-15T18:06:06;7.40;55.10
43991;DHT22;29654;50.784;20.604;2023-02-15T18:11:26;7.30;55.00
43991;DHT22;29654;50.784;20.604;2023-02-15T18:16:41;7.30;55.00
43991;DHT22;29654;50.784;20.604;2023-02-15T18:21:45;7.20;54.90
43991;DHT22;29654;50.784;20.604;2023-02-15T18:26:48;7.20;55.00
43991;DHT22;29654;50.784;20.604;2023-02-15T18:31:54;7.10;55.20
43991;DHT22;29654;50.784;20.604;2023-02-15T18:36:59;7.10;55.40
43991;DHT22;29654;50.784;20.604;2023-02-15T18:42:03;7.10;55.40
43991;DHT22;29654;50.784;20.604;2023-02-15T18:47:07;7.10;55.40
43991;DHT22;29654;50.784;20.604;2023-02-15T18:52:14;7.00;55.30
43991;DHT22;29654;50.784;20.604;2023-02-15T18:57:17;7.00;55.40
43991;DHT22;29654;50.784;20.604;2023-02-15T19:02:21;7.00;55.40
43991;DHT22;29654;50.784;20.604;2023-02-15T19:07:25;6.90;55.60
43991;DHT22;29654;50.784;20.604;2023-02-15T19:12:29;6.90;55.70
43991;DHT22;29654;50.784;20.604;2023-02-15T19:17:34;6.90;55.80
43991;DHT22;29654;50.784;20.604;2023-02-15T19:22:36;7.00;56.00
43991;DHT22;29654;50.784;20.604;2023-02-15T19:27:39;7.00;56.00
43991;DHT22;29654;50.784;20.604;2023-02-15T19:32:44;7.00;56.00
43991;DHT22;29654;50.784;20.604;2023-02-15T19:37:49;7.00;56.10
43991;DHT22;29654;50.784;20.604;2023-02-15T19:42:52;7.00;56.00
43991;DHT22;29654;50.784;20.604;2023-02-15T19:47:56;7.00;56.00
43991;DHT22;29654;50.784;20.604;2023-02-15T19:53:01;7.00;55.90
43991;DHT22;29654;50.784;20.604;2023-02-15T19:58:10;7.00;55.80
43991;DHT22;29654;50.784;20.604;2023-02-15T20:03:15;7.00;55.80
43991;DHT22;29654;50.784;20.604;2023-02-15T20:08:19;6.90;55.70
43991;DHT22;29654;50.784;20.604;2023-02-15T20:13:23;6.90;55.70
43991;DHT22;29654;50.784;20.604;2023-02-15T20:18:27;6.90;55.70
43991;DHT22;29654;50.784;20.604;2023-02-15T20:23:32;6.90;55.70
43991;DHT22;29654;50.784;20.604;2023-02-15T20:28:36;6.80;55.60
43991;DHT22;29654;50.784;20.604;2023-02-15T20:33:40;6.80;55.60
43991;DHT22;29654;50.784;20.604;2023-02-15T20:38:43;6.70;55.60
43991;DHT22;29654;50.784;20.604;2023-02-15T20:43:46;6.70;55.60
43991;DHT22;29654;50.784;20.604;2023-02-15T20:48:49;6.70;55.70
43991;DHT22;29654;50.784;20.604;2023-02-15T20:53:52;6.70;55.60
43991;DHT22;29654;50.784;20.604;2023-02-15T20:58:55;6.60;55.50
43991;DHT22;29654;50.784;20.604;2023-02-15T21:03:59;6.60;55.60
43991;DHT22;29654;50.784;20.604;2023-02-15T21:09:01;6.50;55.50
43991;DHT22;29654;50.784;20.604;2023-02-15T21:14:04;6.50;55.60
43991;DHT22;29654;50.784;20.604;2023-02-15T21:19:12;6.50;55.60
43991;DHT22;29654;50.784;20.604;2023-02-15T21:24:21;6.50;55.60
43991;DHT22;29654;50.784;20.604;2023-02-15T21:29:29;6.40;55.70
43991;DHT22;29654;50.784;20.604;2023-02-15T21:34:33;6.40;55.80
43991;DHT22;29654;50.784;20.604;2023-02-15T21:39:36;6.40;56.00
43991;DHT22;29654;50.784;20.604;2023-02-15T21:44:39;6.40;56.00
43991;DHT22;29654;50.784;20.604;2023-02-15T21:50:00;6.40;55.90
43991;DHT22;29654;50.784;20.604;2023-02-15T21:55:23;6.30;55.80
43991;DHT22;29654;50.784;20.604;2023-02-15T22:00:26;6.30;55.80
43991;DHT22;29654;50.784;20.604;2023-02-15T22:05:32;6.30;55.80
43991;DHT22;29654;50.784;20.604;2023-02-15T22:10:35;6.30;55.80
43991;DHT22;29654;50.784;20.604;2023-02-15T22:15:37;6.30;55.80
43991;DHT22;29654;50.784;20.604;2023-02-15T22:20:43;6.30;55.90
43991;DHT22;29654;50.784;20.604;2023-02-15T22:25:49;6.30;56.00
43991;DHT22;29654;50.784;20.604;2023-02-15T22:30:55;6.30;56.60
43991;DHT22;29654;50.784;20.604;2023-02-15T22:35:59;6.30;55.90
43991;DHT22;29654;50.784;20.604;2023-02-15T22:41:02;6.30;55.80
43991;DHT22;29654;50.784;20.604;2023-02-15T22:46:09;6.20;55.90
43991;DHT22;29654;50.784;20.604;2023-02-15T22:51:19;6.20;55.90
43991;DHT22;29654;50.784;20.604;2023-02-15T22:56:26;6.20;56.00
43991;DHT22;29654;50.784;20.604;2023-02-15T23:01:35;6.20;55.90
43991;DHT22;29654;50.784;20.604;2023-02-15T23:06:40;6.20;55.90
43991;DHT22;29654;50.784;20.604;2023-02-15T23:11:43;6.20;55.90
43991;DHT22;29654;50.784;20.604;2023-02-15T23:16:46;6.20;55.70
43991;DHT22;29654;50.784;20.604;2023-02-15T23:21:50;6.20;55.70
43991;DHT22;29654;50.784;20.604;2023-02-15T23:26:54;6.10;55.60
43991;DHT22;29654;50.784;20.604;2023-02-15T23:32:17;6.10;55.60
43991;DHT22;29654;50.784;20.604;2023-02-15T23:37:23;6.00;55.60
43991;DHT22;29654;50.784;20.604;2023-02-15T23:42:27;6.00;55.60
43991;DHT22;29654;50.784;20.604;2023-02-15T23:47:32;5.90;55.60
43991;DHT22;29654;50.784;20.604;2023-02-15T23:52:55;5.90;55.60
43991;DHT22;29654;50.784;20.604;2023-02-15T23:57:58;5.80;55.50
